AIRPORT_AIRPORT_METAR
METAR FOR ESNX
ADDS - METARS form results

(1230 UTC 03 July 2020)
Data provider http://aviationweather.gov/metar/data/
 
METAR text: ESNX 031220Z AUTO 31011KT 8000 RA FEW011/// BKN014/// OVC022/// 05/04 Q1000
Conditions at: ESNX (ARVIDSJAUR , SE) observed 1220 UTC 03 July 2020
Temperature: 5.0°C (41°F)
Dewpoint: 4.0°C (39°F) [RH = 93%]
Pressure (altimeter): 29.53 inches Hg (1000.0 mb)
Winds: from the NW (310 degrees) at 13 MPH (11 knots; 5.7 m/s)
Visibility: 5 miles ( 8 km)
Ceiling: 1400 feet AGL
Clouds: few clouds at 1100 feet AGL
broken clouds at 1400 feet AGL
overcast cloud deck at 2200 feet AGL
Weather: RA  (moderate rain)

METAR text: ESNX 031150Z AUTO 32011KT 5000 RA BKN013/// OVC021/// 05/04 Q1000
Conditions at: ESNX (ARVIDSJAUR , SE) observed 1150 UTC 03 July 2020
Temperature: 5.0°C (41°F)
Dewpoint: 4.0°C (39°F) [RH = 93%]
Pressure (altimeter): 29.53 inches Hg (1000.0 mb)
Winds: from the NW (320 degrees) at 13 MPH (11 knots; 5.7 m/s)
Visibility: 3 miles ( 5 km)
Ceiling: 1300 feet AGL
Clouds: broken clouds at 1300 feet AGL
overcast cloud deck at 2100 feet AGL
Weather: RA  (moderate rain)

Forecast for: ESNX (ARVIDSJAUR , SE)
Text: TAF ESNX 031230Z 0313/0317 30010KT 8000 RA BKN012
Forecast period: 1300 to 1700 UTC 03 July 2020
Forecast type: FROM: standard forecast or significant change
Winds: from the WNW (300 degrees) at 12 MPH (10 knots; 5.1 m/s)
Visibility: 5 miles (8 km)
Ceiling: 1200 feet AGL
Clouds: broken clouds at 1200 feet AGL
Weather: RA  (moderate rain)
Text: TEMPO 0313/0317 3000 -RA SCT010 BKN020
Forecast period: 1300 to 1700 UTC 03 July 2020
Forecast type: TEMPORARY: The following changes expected for less than half the time period
Visibility: 1.86 miles (2.99 km)
Ceiling: 2000 feet AGL
Clouds: scattered clouds at 1000 feet AGL
broken clouds at 2000 feet AGL
Weather: -RA  (light rain)

 AIRPORT_AIRPORT_MAP

 AIRPORT_RUNWAY_INFO
AIRPORT_RUNWAY 12 AIRPORT_RUNWAY_LENGTH 8201 ft AIRPORT_RUNWAY_WIDTH 148 ft
AIRPORT_RUNWAY_ELEVATION 1241 ft AIRPORT_RUNWAY_THRESHOLD 0 ft AIRPORT_RUNWAY_HEADING 128
AIRPORT_RUNWAY 30 AIRPORT_RUNWAY_LENGTH 8201 ft AIRPORT_RUNWAY_WIDTH 148 ft
AIRPORT_RUNWAY_ELEVATION 1240 ft AIRPORT_RUNWAY_THRESHOLD 0 ft AIRPORT_RUNWAY_HEADING 308

 AIRPORT_AIRPORT_FREQUENCIES
AIRPORT_AIRPORT_NAVAIDS_TYPE AFIS AIRPORT_AIRPORT_NAVAIDS_NAME AFIS AIRPORT_AIRPORT_NAVAIDS_FREQ 123 MHZ
AIRPORT_AIRPORT_NAVAIDS_TYPE TWR AIRPORT_AIRPORT_NAVAIDS_NAME TWR AIRPORT_AIRPORT_NAVAIDS_FREQ 123 MHZ

 AIRPORT_AIRPORT_NAVAIDS
AIRPORT_AIRPORT_NAVAIDS_TYPE NDB AIRPORT_AIRPORT_NAVAIDS_NAME Arvidsjaur AIRPORT_AIRPORT_NAVAIDS_FREQ 381 KHZ



Copyright © 2005-2020 - Virtuel Air Alsace - Tous droits réservés